createdAt,value
2022-11-29T00:01:30.618Z,6.06
2022-11-29T00:03:57.380Z,5.87
2022-11-29T00:06:27.055Z,5.98
2022-11-29T00:08:55.714Z,6.02
2022-11-29T00:11:25.205Z,5.77
2022-11-29T00:13:51.613Z,5.90
2022-11-29T00:16:18.105Z,5.81
2022-11-29T00:18:44.598Z,5.63
2022-11-29T00:21:11.027Z,5.86
2022-11-29T00:23:37.460Z,5.46
2022-11-29T00:26:06.379Z,5.76
2022-11-29T00:28:34.039Z,5.78
2022-11-29T00:31:00.692Z,5.40
2022-11-29T00:33:27.181Z,5.65
2022-11-29T00:35:53.594Z,5.49
2022-11-29T00:38:20.035Z,5.50
2022-11-29T00:40:51.241Z,5.29
2022-11-29T00:43:17.648Z,5.59
2022-11-29T00:45:44.095Z,5.45
2022-11-29T00:48:10.573Z,5.24
2022-11-29T00:50:37.061Z,5.53
2022-11-29T00:53:03.470Z,5.43
2022-11-29T00:55:29.933Z,5.39
2022-11-29T00:57:56.330Z,5.15
2022-11-29T01:00:22.875Z,5.30
2022-11-29T01:02:49.310Z,5.31
2022-11-29T01:05:15.846Z,4.98
2022-11-29T01:07:42.298Z,5.06
2022-11-29T01:10:09.337Z,4.92
2022-11-29T01:12:39.667Z,4.94
2022-11-29T01:15:07.911Z,4.72
2022-11-29T01:17:39.060Z,5.09
2022-11-29T01:20:09.082Z,5.24
2022-11-29T01:22:36.076Z,5.07
2022-11-29T01:25:02.832Z,4.68
2022-11-29T01:27:29.559Z,4.85
2022-11-29T01:29:56.012Z,4.72
2022-11-29T01:32:22.528Z,4.66
2022-11-29T01:34:48.956Z,4.89
2022-11-29T01:37:15.527Z,4.91
2022-11-29T01:39:42.146Z,4.77
2022-11-29T01:42:12.973Z,4.55
2022-11-29T01:44:39.471Z,4.54
2022-11-29T01:47:05.917Z,4.72
2022-11-29T01:49:55.969Z,4.75
2022-11-29T01:52:25.780Z,4.36
2022-11-29T01:54:56.524Z,4.56
2022-11-29T01:57:23.840Z,4.38
2022-11-29T01:59:56.699Z,4.48
2022-11-29T02:02:43.216Z,4.38
2022-11-29T02:05:12.226Z,4.31
2022-11-29T02:07:38.820Z,4.12
2022-11-29T02:10:07.052Z,4.23
2022-11-29T02:12:56.623Z,4.26
2022-11-29T02:15:33.349Z,4.28
2022-11-29T02:18:06.344Z,4.03
2022-11-29T02:20:51.620Z,4.16
2022-11-29T02:23:23.804Z,4.11
2022-11-29T02:25:59.251Z,3.76
2022-11-29T02:28:37.551Z,4.28
2022-11-29T02:31:39.180Z,4.11
2022-11-29T02:34:43.214Z,4.36
2022-11-29T02:37:47.522Z,4.32
2022-11-29T02:40:39.052Z,4.32
2022-11-29T02:43:13.004Z,4.13
2022-11-29T02:46:21.412Z,4.04
2022-11-29T02:49:00.035Z,4.07
2022-11-29T02:51:41.352Z,4.02
2022-11-29T02:54:13.482Z,4.10
2022-11-29T02:56:58.164Z,4.00
2022-11-29T02:59:27.193Z,4.07
2022-11-29T03:02:19.841Z,4.09
2022-11-29T03:05:10.405Z,3.91
2022-11-29T03:07:37.013Z,4.19
2022-11-29T03:10:08.843Z,4.01
2022-11-29T03:12:46.665Z,4.18
2022-11-29T03:15:25.055Z,4.11
2022-11-29T03:18:25.619Z,4.03
2022-11-29T03:21:24.403Z,4.03
2022-11-29T03:23:55.376Z,3.72
2022-11-29T03:26:30.405Z,3.93
2022-11-29T03:29:06.502Z,3.80
2022-11-29T03:31:56.964Z,4.12
2022-11-29T03:34:38.519Z,4.07
2022-11-29T03:37:28.760Z,4.12
2022-11-29T03:40:21.120Z,3.97
2022-11-29T03:43:04.091Z,3.59
2022-11-29T03:45:33.439Z,3.99
2022-11-29T03:48:07.804Z,3.91
2022-11-29T03:50:50.607Z,3.82
2022-11-29T03:53:32.623Z,3.61
2022-11-29T03:56:01.699Z,3.91
2022-11-29T03:58:39.181Z,3.73
2022-11-29T04:01:35.354Z,3.89
2022-11-29T04:04:23.263Z,3.89
2022-11-29T04:07:04.989Z,3.65
2022-11-29T04:09:48.748Z,4.07
2022-11-29T04:12:34.034Z,4.06
2022-11-29T04:15:33.861Z,3.74
2022-11-29T04:18:37.124Z,3.42
2022-11-29T04:21:09.341Z,3.45
2022-11-29T04:24:10.921Z,3.38
2022-11-29T04:27:07.035Z,3.52
2022-11-29T04:29:50.177Z,3.50
2022-11-29T04:32:54.277Z,3.70
2022-11-29T04:35:43.003Z,3.48
2022-11-29T04:38:18.605Z,3.67
2022-11-29T04:41:02.920Z,3.33
2022-11-29T04:44:02.489Z,2.96
2022-11-29T04:46:36.607Z,3.33
2022-11-29T04:49:05.755Z,2.81
2022-11-29T04:51:47.250Z,3.07
2022-11-29T04:54:39.969Z,3.21
2022-11-29T04:57:14.075Z,3.38
2022-11-29T04:59:54.015Z,3.21
2022-11-29T05:02:55.894Z,3.16
2022-11-29T05:05:37.576Z,3.10
2022-11-29T05:08:22.667Z,3.21
2022-11-29T05:11:18.855Z,3.28
2022-11-29T05:13:57.742Z,3.34
2022-11-29T05:16:36.941Z,3.24
2022-11-29T05:19:20.478Z,3.13
2022-11-29T05:22:00.933Z,2.63
2022-11-29T05:24:59.848Z,2.47
2022-11-29T05:28:10.211Z,2.65
2022-11-29T05:31:18.564Z,2.83
2022-11-29T05:33:45.004Z,2.87
2022-11-29T05:36:32.968Z,2.87
2022-11-29T05:39:29.226Z,2.39
2022-11-29T05:42:49.839Z,2.83
2022-11-29T05:45:40.818Z,2.73
2022-11-29T05:48:44.911Z,2.99
2022-11-29T05:51:29.398Z,2.75
2022-11-29T05:54:08.215Z,2.93
2022-11-29T05:56:40.608Z,2.45
2022-11-29T05:59:17.805Z,2.73
2022-11-29T06:01:53.206Z,2.71
2022-11-29T06:04:27.818Z,2.90
2022-11-29T06:07:06.755Z,2.82
2022-11-29T06:09:47.664Z,2.94
2022-11-29T06:12:21.229Z,2.59
2022-11-29T06:15:04.308Z,2.85
2022-11-29T06:17:39.599Z,2.86
2022-11-29T06:20:30.768Z,2.83
2022-11-29T06:23:15.450Z,2.69
2022-11-29T06:26:06.594Z,2.64
2022-11-29T06:28:59.493Z,2.46
2022-11-29T06:31:55.700Z,3.03
2022-11-29T06:34:33.169Z,2.28
2022-11-29T06:37:31.490Z,2.87
2022-11-29T06:39:58.066Z,2.71
2022-11-29T06:42:24.473Z,2.88
2022-11-29T06:44:51.127Z,2.86
2022-11-29T06:47:46.970Z,2.97
2022-11-29T06:50:22.518Z,2.79
2022-11-29T06:53:05.675Z,2.93
2022-11-29T06:55:38.059Z,2.94
2022-11-29T06:58:13.648Z,2.95
2022-11-29T07:01:10.747Z,3.07
2022-11-29T07:04:01.788Z,2.92
2022-11-29T07:06:29.502Z,2.81
2022-11-29T07:09:12.848Z,2.61
2022-11-29T07:11:39.936Z,2.99
2022-11-29T07:14:06.666Z,2.96
2022-11-29T07:16:40.146Z,2.87
2022-11-29T07:19:16.476Z,2.69
2022-11-29T07:22:06.843Z,2.92
2022-11-29T07:24:51.898Z,3.09
2022-11-29T07:27:33.228Z,3.34
2022-11-29T07:30:13.777Z,2.97
2022-11-29T07:32:50.180Z,2.90
2022-11-29T07:35:29.144Z,3.07
2022-11-29T07:38:09.417Z,2.70
2022-11-29T07:40:56.967Z,2.76
2022-11-29T07:43:51.392Z,2.99
2022-11-29T07:46:17.845Z,2.53
2022-11-29T07:48:44.320Z,2.53
2022-11-29T07:51:10.992Z,2.87
2022-11-29T07:53:41.915Z,2.72
2022-11-29T07:56:08.688Z,2.90
2022-11-29T07:58:35.860Z,3.00
2022-11-29T08:01:03.063Z,3.21
2022-11-29T08:03:29.854Z,3.03
2022-11-29T08:05:56.568Z,3.25
2022-11-29T08:08:22.949Z,3.45
2022-11-29T08:10:49.467Z,2.93
2022-11-29T08:13:15.845Z,3.37
2022-11-29T08:15:45.959Z,2.96
2022-11-29T08:18:12.796Z,3.02
2022-11-29T08:20:39.612Z,3.42
2022-11-29T08:23:06.063Z,3.20
2022-11-29T08:25:32.457Z,3.37
2022-11-29T08:27:58.925Z,3.55
2022-11-29T08:30:25.348Z,3.52
2022-11-29T08:32:52.789Z,3.70
2022-11-29T08:35:21.199Z,3.50
2022-11-29T08:37:47.887Z,3.57
2022-11-29T08:40:15.247Z,3.68
2022-11-29T08:42:41.896Z,3.77
2022-11-29T08:45:09.068Z,3.69
2022-11-29T08:47:36.105Z,3.86
2022-11-29T08:50:13.883Z,3.72
2022-11-29T08:52:45.004Z,3.76
2022-11-29T08:55:11.555Z,3.59
2022-11-29T08:57:40.245Z,3.93
2022-11-29T09:00:07.683Z,3.82
2022-11-29T09:02:34.169Z,3.87
2022-11-29T09:05:00.690Z,3.79
2022-11-29T09:07:27.160Z,4.07
2022-11-29T09:09:53.623Z,3.80
2022-11-29T09:12:20.061Z,4.18
2022-11-29T09:14:46.696Z,4.23
2022-11-29T09:17:13.341Z,4.43
2022-11-29T09:19:39.765Z,4.51
2022-11-29T09:22:06.232Z,4.36
2022-11-29T09:24:33.809Z,4.53
2022-11-29T09:27:00.324Z,4.39
2022-11-29T09:29:26.735Z,4.56
2022-11-29T09:31:53.253Z,4.73
2022-11-29T09:34:19.658Z,4.96
2022-11-29T09:36:46.061Z,5.00
2022-11-29T09:39:12.494Z,4.65
2022-11-29T09:41:51.377Z,4.33
2022-11-29T09:44:55.905Z,4.66
2022-11-29T09:47:51.860Z,4.68
2022-11-29T09:50:38.044Z,4.68
2022-11-29T09:53:33.739Z,4.84
2022-11-29T09:56:28.721Z,5.18
2022-11-29T09:59:02.594Z,4.77
2022-11-29T10:01:37.468Z,5.02
2022-11-29T10:04:10.212Z,4.80
2022-11-29T10:06:41.999Z,4.84
2022-11-29T10:09:17.011Z,4.73
2022-11-29T10:12:19.834Z,5.17
2022-11-29T10:15:00.176Z,4.82
2022-11-29T10:17:44.899Z,5.32
2022-11-29T10:20:17.754Z,5.32
2022-11-29T10:23:06.653Z,5.00
2022-11-29T10:25:44.112Z,5.21
2022-11-29T10:28:15.851Z,5.46
2022-11-29T10:30:43.429Z,5.84
2022-11-29T10:33:35.085Z,6.22
2022-11-29T10:36:37.504Z,5.96
2022-11-29T10:39:14.462Z,5.90
2022-11-29T10:41:41.440Z,5.80
2022-11-29T10:44:13.543Z,5.87
2022-11-29T10:46:40.259Z,6.41
2022-11-29T10:49:13.193Z,6.49
2022-11-29T10:51:39.604Z,6.74
2022-11-29T10:54:44.120Z,7.21
2022-11-29T10:57:18.926Z,6.91
2022-11-29T11:00:02.029Z,7.39
2022-11-29T11:02:28.757Z,7.33
2022-11-29T11:04:55.396Z,7.29
2022-11-29T11:07:36.228Z,7.66
2022-11-29T11:10:22.012Z,7.74
2022-11-29T11:13:21.570Z,7.70
2022-11-29T11:15:48.246Z,7.79
2022-11-29T11:18:23.856Z,7.86
2022-11-29T11:20:57.077Z,7.95
2022-11-29T11:23:30.479Z,7.71
2022-11-29T11:26:01.301Z,7.69
2022-11-29T11:28:42.257Z,7.90
2022-11-29T11:31:10.940Z,7.72
2022-11-29T11:33:45.098Z,7.95
2022-11-29T11:36:22.889Z,7.93
2022-11-29T11:38:52.100Z,8.13
2022-11-29T11:41:23.449Z,8.27
2022-11-29T11:43:53.155Z,7.42
2022-11-29T11:46:20.005Z,7.55
2022-11-29T11:48:47.120Z,7.77
2022-11-29T11:51:25.380Z,8.18
2022-11-29T11:53:56.545Z,8.10
2022-11-29T11:56:24.129Z,8.50
2022-11-29T11:58:55.155Z,8.55
2022-11-29T12:01:37.986Z,8.45
2022-11-29T12:04:27.296Z,8.65
2022-11-29T12:06:59.220Z,8.56
2022-11-29T12:09:43.437Z,8.43
2022-11-29T12:12:19.463Z,8.72
2022-11-29T12:14:51.922Z,8.26
2022-11-29T12:17:27.929Z,8.03
2022-11-29T12:20:16.843Z,8.74
2022-11-29T12:23:01.861Z,9.05
2022-11-29T12:25:34.957Z,8.74
2022-11-29T12:28:01.519Z,8.62
2022-11-29T12:30:28.094Z,8.79
2022-11-29T12:33:06.251Z,8.70
2022-11-29T12:36:05.193Z,8.97
2022-11-29T12:38:43.649Z,8.83
2022-11-29T12:41:31.214Z,8.96
2022-11-29T12:44:03.412Z,8.93
2022-11-29T12:46:30.865Z,8.75
2022-11-29T12:49:22.867Z,8.90
2022-11-29T12:52:21.655Z,9.30
2022-11-29T12:55:06.515Z,9.02
2022-11-29T12:57:50.915Z,8.98
2022-11-29T13:00:19.913Z,9.24
2022-11-29T13:02:58.792Z,9.30
2022-11-29T13:05:40.478Z,9.41
2022-11-29T13:08:22.573Z,9.33
2022-11-29T13:11:01.988Z,9.00
2022-11-29T13:14:20.302Z,9.12
2022-11-29T13:16:58.613Z,9.32
2022-11-29T13:19:34.990Z,9.10
2022-11-29T13:22:21.135Z,8.92
2022-11-29T13:24:52.247Z,8.96
2022-11-29T13:27:24.833Z,9.37
2022-11-29T13:29:51.462Z,9.24
2022-11-29T13:32:45.764Z,9.41
2022-11-29T13:35:30.151Z,9.37
2022-11-29T13:38:21.201Z,9.14
2022-11-29T13:41:04.431Z,9.32
2022-11-29T13:43:38.598Z,9.36
2022-11-29T13:46:28.076Z,9.30
2022-11-29T13:48:55.208Z,8.95
2022-11-29T13:51:38.607Z,9.23
2022-11-29T13:54:07.500Z,9.08
2022-11-29T13:56:42.936Z,9.11
2022-11-29T13:59:22.448Z,8.95
2022-11-29T14:01:51.450Z,8.65
2022-11-29T14:04:30.197Z,8.75
2022-11-29T14:07:04.959Z,9.07
2022-11-29T14:09:37.500Z,8.85
2022-11-29T14:12:19.247Z,9.15
2022-11-29T14:15:00.305Z,9.24
2022-11-29T14:17:26.687Z,9.20
2022-11-29T14:20:22.243Z,9.21
2022-11-29T14:23:06.614Z,8.92
2022-11-29T14:25:51.689Z,8.78
2022-11-29T14:28:21.539Z,9.00
2022-11-29T14:31:34.016Z,8.97
2022-11-29T14:34:08.426Z,8.92
2022-11-29T14:36:41.073Z,8.98
2022-11-29T14:39:18.756Z,9.05
2022-11-29T14:41:51.149Z,9.07
2022-11-29T14:44:25.457Z,8.85
2022-11-29T14:47:06.632Z,9.14
2022-11-29T14:49:42.360Z,8.96
2022-11-29T14:52:15.462Z,8.94
2022-11-29T14:55:17.354Z,8.93
2022-11-29T14:57:53.405Z,8.57
2022-11-29T15:00:38.108Z,8.50
2022-11-29T15:03:12.817Z,8.29
2022-11-29T15:06:14.706Z,8.37
2022-11-29T15:08:55.570Z,8.29
2022-11-29T15:11:30.434Z,8.06
2022-11-29T15:14:19.400Z,8.13
2022-11-29T15:16:58.028Z,8.23
2022-11-29T15:19:24.381Z,8.22
2022-11-29T15:22:21.003Z,8.32
2022-11-29T15:25:10.767Z,8.18
2022-11-29T15:27:40.137Z,8.35
2022-11-29T15:30:40.322Z,8.46
2022-11-29T15:33:18.511Z,8.36
2022-11-29T15:35:50.798Z,8.22
2022-11-29T15:38:18.816Z,8.41
2022-11-29T15:40:51.973Z,7.88
2022-11-29T15:43:35.380Z,8.03
2022-11-29T15:46:02.256Z,8.43
2022-11-29T15:48:31.307Z,8.46
2022-11-29T15:50:57.825Z,8.38
2022-11-29T15:53:31.132Z,8.44
2022-11-29T15:56:00.281Z,8.40
2022-11-29T15:58:29.060Z,8.67
2022-11-29T16:00:57.864Z,8.50
2022-11-29T16:03:28.472Z,8.72
2022-11-29T16:06:21.603Z,8.56
2022-11-29T16:08:49.711Z,8.83
2022-11-29T16:11:20.447Z,8.44
2022-11-29T16:14:26.750Z,8.75
2022-11-29T16:16:56.580Z,8.17
2022-11-29T16:19:34.168Z,8.37
2022-11-29T16:22:12.618Z,8.16
2022-11-29T16:24:45.586Z,8.13
2022-11-29T16:27:12.735Z,8.32
2022-11-29T16:29:44.103Z,8.00
2022-11-29T16:32:30.100Z,7.80
2022-11-29T16:35:06.074Z,7.92
2022-11-29T16:37:40.091Z,7.80
2022-11-29T16:40:18.912Z,7.58
2022-11-29T16:43:13.820Z,8.14
2022-11-29T16:45:41.765Z,8.03
2022-11-29T16:48:23.382Z,8.06
2022-11-29T16:51:11.390Z,8.27
2022-11-29T16:53:39.856Z,8.33
2022-11-29T16:56:11.209Z,8.41
2022-11-29T16:59:17.052Z,8.16
2022-11-29T17:01:31.086Z,8.40
2022-11-29T17:03:58.917Z,8.32
2022-11-29T17:06:26.848Z,8.05
2022-11-29T17:08:55.614Z,8.02
2022-11-29T17:11:22.312Z,7.74
2022-11-29T17:13:49.398Z,7.75
2022-11-29T17:16:20.705Z,7.65
2022-11-29T17:18:47.399Z,7.52
2022-11-29T17:21:20.671Z,7.65
2022-11-29T17:23:47.150Z,7.45
2022-11-29T17:26:13.778Z,7.13
2022-11-29T17:28:41.223Z,7.49
2022-11-29T17:31:12.538Z,7.52
2022-11-29T17:33:39.002Z,7.47
2022-11-29T17:36:10.854Z,7.50
2022-11-29T17:38:38.083Z,7.09
2022-11-29T17:41:08.722Z,7.24
2022-11-29T17:43:36.028Z,7.30
2022-11-29T17:46:09.474Z,7.43
2022-11-29T17:48:36.299Z,7.11
2022-11-29T17:51:02.754Z,7.37
2022-11-29T17:53:30.540Z,7.51
2022-11-29T17:56:05.850Z,7.40
2022-11-29T17:58:32.790Z,6.87
2022-11-29T18:01:14.045Z,7.19
2022-11-29T18:03:42.290Z,7.06
2022-11-29T18:06:13.942Z,7.08
2022-11-29T18:08:42.669Z,6.97
2022-11-29T18:11:12.380Z,7.03
2022-11-29T18:13:39.360Z,7.03
2022-11-29T18:16:12.022Z,6.97
2022-11-29T18:18:39.134Z,6.99
2022-11-29T18:21:07.876Z,6.58
2022-11-29T18:23:36.720Z,6.92
2022-11-29T18:26:10.275Z,6.77
2022-11-29T18:28:38.522Z,6.84
2022-11-29T18:31:14.933Z,6.87
2022-11-29T18:33:43.155Z,6.74
2022-11-29T18:36:12.406Z,6.63
2022-11-29T18:38:41.167Z,6.73
2022-11-29T18:41:09.589Z,6.63
2022-11-29T18:43:37.297Z,6.64
2022-11-29T18:46:10.847Z,6.56
2022-11-29T18:48:37.973Z,6.35
2022-11-29T18:51:06.624Z,6.90
2022-11-29T18:53:37.149Z,6.99
2022-11-29T18:56:08.508Z,6.78
2022-11-29T18:58:34.926Z,6.89
2022-11-29T19:01:18.653Z,6.77
2022-11-29T19:03:47.565Z,6.53
2022-11-29T19:06:16.723Z,6.70
2022-11-29T19:08:43.677Z,6.47
2022-11-29T19:11:13.437Z,6.77
2022-11-29T19:13:40.767Z,6.73
2022-11-29T19:16:12.752Z,6.93
2022-11-29T19:18:39.627Z,6.89
2022-11-29T19:21:12.781Z,7.19
2022-11-29T19:23:40.072Z,7.17
2022-11-29T19:26:08.779Z,7.08
2022-11-29T19:28:39.043Z,6.68
2022-11-29T19:31:06.156Z,6.99
2022-11-29T19:33:36.570Z,6.94
2022-11-29T19:36:20.647Z,6.87
2022-11-29T19:38:52.981Z,6.50
2022-11-29T19:41:22.513Z,6.71
2022-11-29T19:43:49.735Z,6.77
2022-11-29T19:46:18.982Z,6.86
2022-11-29T19:48:45.928Z,6.96
2022-11-29T19:51:14.270Z,7.16
2022-11-29T19:53:40.710Z,6.80
2022-11-29T19:56:09.201Z,6.96
2022-11-29T19:58:35.595Z,7.00
2022-11-29T20:01:13.398Z,7.05
2022-11-29T20:03:40.394Z,7.01
2022-11-29T20:06:08.637Z,7.18
2022-11-29T20:08:36.270Z,7.10
2022-11-29T20:11:11.117Z,7.02
2022-11-29T20:13:39.027Z,6.87
2022-11-29T20:16:08.715Z,6.90
2022-11-29T20:18:37.026Z,7.02
2022-11-29T20:21:08.715Z,7.29
2022-11-29T20:23:35.184Z,7.25
2022-11-29T20:26:01.625Z,7.04
2022-11-29T20:28:28.310Z,7.17
2022-11-29T20:30:54.862Z,6.89
2022-11-29T20:33:25.345Z,6.95
2022-11-29T20:36:12.540Z,6.72
2022-11-29T20:39:00.211Z,6.64
2022-11-29T20:41:41.391Z,6.81
2022-11-29T20:44:12.991Z,6.86
2022-11-29T20:46:39.543Z,6.69
2022-11-29T20:49:06.853Z,6.62
2022-11-29T20:51:44.242Z,6.75
2022-11-29T20:54:11.875Z,6.65
2022-11-29T20:56:38.288Z,6.56
2022-11-29T20:59:04.738Z,7.03
2022-11-29T21:01:31.246Z,7.14
2022-11-29T21:03:57.772Z,7.04
2022-11-29T21:06:24.223Z,6.75
2022-11-29T21:08:50.649Z,6.73
2022-11-29T21:11:17.426Z,6.96
2022-11-29T21:13:44.380Z,6.99
2022-11-29T21:16:12.392Z,6.88
2022-11-29T21:18:39.454Z,6.81
2022-11-29T21:21:39.682Z,6.67
2022-11-29T21:24:21.349Z,6.58
2022-11-29T21:26:51.134Z,6.64
2022-11-29T21:29:20.002Z,6.63
2022-11-29T21:31:49.155Z,6.78
2022-11-29T21:34:15.641Z,6.71
2022-11-29T21:36:44.310Z,6.45
2022-11-29T21:39:15.828Z,6.96
2022-11-29T21:41:42.526Z,6.66
2022-11-29T21:44:09.127Z,6.24
2022-11-29T21:46:35.971Z,6.71
2022-11-29T21:49:02.688Z,6.69
2022-11-29T21:51:29.097Z,6.55
2022-11-29T21:53:55.540Z,6.33
2022-11-29T21:56:21.952Z,6.04
2022-11-29T21:58:48.390Z,6.54
2022-11-29T22:01:18.197Z,6.27
2022-11-29T22:03:45.246Z,5.96
2022-11-29T22:06:14.141Z,6.14
2022-11-29T22:08:41.613Z,6.29
2022-11-29T22:11:10.853Z,6.10
2022-11-29T22:13:38.659Z,6.12
2022-11-29T22:16:09.776Z,6.41
2022-11-29T22:18:36.517Z,6.33
2022-11-29T22:21:05.568Z,6.30
2022-11-29T22:23:32.176Z,6.29
2022-11-29T22:26:06.436Z,6.04
2022-11-29T22:28:34.000Z,6.30
2022-11-29T22:31:11.300Z,6.22
2022-11-29T22:33:38.600Z,6.35
2022-11-29T22:36:10.594Z,6.24
2022-11-29T22:38:37.108Z,6.45
2022-11-29T22:41:11.691Z,6.16
2022-11-29T22:43:39.463Z,6.52
2022-11-29T22:46:26.746Z,6.44
2022-11-29T22:48:55.147Z,6.68
2022-11-29T22:51:30.389Z,6.65
2022-11-29T22:53:59.087Z,6.55
2022-11-29T22:56:31.606Z,6.22
2022-11-29T22:58:58.645Z,6.41
2022-11-29T23:01:27.408Z,6.52
2022-11-29T23:03:56.708Z,6.48
2022-11-29T23:06:31.377Z,6.38
2022-11-29T23:09:03.286Z,6.69
2022-11-29T23:11:30.818Z,6.37
2022-11-29T23:13:57.293Z,6.72
2022-11-29T23:16:28.663Z,6.47
2022-11-29T23:18:57.251Z,6.32
2022-11-29T23:21:26.789Z,6.25
2022-11-29T23:23:56.590Z,6.14
2022-11-29T23:26:23.332Z,6.47
2022-11-29T23:28:50.431Z,6.11
2022-11-29T23:31:17.576Z,6.25
2022-11-29T23:33:44.212Z,6.21
2022-11-29T23:36:11.594Z,6.03
2022-11-29T23:38:38.762Z,6.25
2022-11-29T23:41:06.974Z,6.38
2022-11-29T23:43:36.193Z,6.38
2022-11-29T23:46:07.674Z,6.18
2022-11-29T23:48:34.242Z,6.33
2022-11-29T23:51:00.758Z,6.29
2022-11-29T23:53:27.638Z,6.33
2022-11-29T23:55:57.917Z,5.88
2022-11-29T23:58:24.902Z,6.15
